createdAt,value
2018-12-14T00:00:27.880Z,98683.81
2018-12-14T00:02:55.923Z,98680.55
2018-12-14T00:05:24.390Z,98678.91
2018-12-14T00:07:52.558Z,98680.91
2018-12-14T00:10:20.625Z,98675.27
2018-12-14T00:12:48.679Z,98676.19
2018-12-14T00:15:16.774Z,98677.73
2018-12-14T00:17:44.903Z,98675.97
2018-12-14T00:20:12.954Z,98673.17
2018-12-14T00:22:41.026Z,98674.11
2018-12-14T00:25:09.438Z,98669.23
2018-12-14T00:27:37.559Z,98674.69
2018-12-14T00:30:06.395Z,98667.28
2018-12-14T00:32:34.442Z,98677.38
2018-12-14T00:35:02.507Z,98680.23
2018-12-14T00:37:31.013Z,98671.98
2018-12-14T00:39:59.066Z,98679.28
2018-12-14T00:42:27.147Z,98681.71
2018-12-14T00:44:55.323Z,98675.89
2018-12-14T00:47:23.386Z,98684.37
2018-12-14T00:49:51.484Z,98688.56
2018-12-14T00:52:20.462Z,98687.91
2018-12-14T00:54:48.507Z,98689.81
2018-12-14T00:57:16.687Z,98686.48
2018-12-14T00:59:44.775Z,98691.05
2018-12-14T01:02:14.736Z,98691.69
2018-12-14T01:04:42.778Z,98683.03
2018-12-14T01:07:10.838Z,98689.36
2018-12-14T01:09:38.894Z,98691.05
2018-12-14T01:12:06.967Z,98692.22
2018-12-14T01:14:35.247Z,98688.19
2018-12-14T01:17:03.395Z,98675.80
2018-12-14T01:19:31.462Z,98688.70
2018-12-14T01:21:59.614Z,98690.49
2018-12-14T01:24:27.725Z,98690.81
2018-12-14T01:26:55.894Z,98694.41
2018-12-14T01:29:23.978Z,98696.90
2018-12-14T01:31:52.410Z,98698.03
2018-12-14T01:34:20.543Z,98700.49
2018-12-14T01:36:48.622Z,98703.38
2018-12-14T01:39:16.782Z,98703.61
2018-12-14T01:41:44.835Z,98706.81
2018-12-14T01:44:12.928Z,98705.80
2018-12-14T01:46:41.407Z,98686.88
2018-12-14T01:49:09.471Z,98700.17
2018-12-14T01:51:37.736Z,98703.85
2018-12-14T01:54:05.783Z,98698.00
2018-12-14T01:56:33.902Z,98689.61
2018-12-14T01:59:01.964Z,98697.77
2018-12-14T02:01:30.151Z,98666.30
2018-12-14T02:03:58.195Z,98679.17
2018-12-14T02:06:26.278Z,98685.84
2018-12-14T02:08:54.466Z,98692.28
2018-12-14T02:11:22.638Z,98688.97
2018-12-14T02:13:50.715Z,98691.60
2018-12-14T02:16:18.796Z,98692.47
2018-12-14T02:18:46.918Z,98687.02
2018-12-14T02:21:15.027Z,98684.24
2018-12-14T02:23:43.070Z,98685.06
2018-12-14T02:26:11.787Z,98689.16
2018-12-14T02:28:40.239Z,98684.32
2018-12-14T02:31:08.300Z,98689.84
2018-12-14T02:33:36.718Z,98688.34
2018-12-14T02:36:04.897Z,98685.22
2018-12-14T02:38:32.968Z,98692.02
2018-12-14T02:41:01.025Z,98686.05
2018-12-14T02:43:30.476Z,98685.66
2018-12-14T02:45:58.573Z,98686.55
2018-12-14T02:48:26.637Z,98690.08
2018-12-14T02:50:54.752Z,98691.21
2018-12-14T02:53:22.794Z,98696.72
2018-12-14T02:55:51.038Z,98705.20
2018-12-14T02:58:19.297Z,98699.42
2018-12-14T03:00:47.333Z,98701.69
2018-12-14T03:03:15.404Z,98697.20
2018-12-14T03:05:43.588Z,98698.64
2018-12-14T03:08:11.659Z,98698.56
2018-12-14T03:10:39.724Z,98693.98
2018-12-14T03:13:07.894Z,98687.25
2018-12-14T03:15:35.970Z,98696.39
2018-12-14T03:18:04.025Z,98694.59
2018-12-14T03:20:32.286Z,98694.90
2018-12-14T03:23:00.371Z,98692.67
2018-12-14T03:25:28.443Z,98689.74
2018-12-14T03:27:56.535Z,98686.42
2018-12-14T03:30:24.584Z,98685.19
2018-12-14T03:32:52.742Z,98684.09
2018-12-14T03:35:21.162Z,98681.19
2018-12-14T03:37:49.223Z,98679.87
2018-12-14T03:40:17.283Z,98679.80
2018-12-14T03:42:45.393Z,98680.08
2018-12-14T03:45:13.437Z,98679.19
2018-12-14T03:47:41.606Z,98677.38
2018-12-14T03:50:09.793Z,98678.74
2018-12-14T03:52:37.842Z,98682.09
2018-12-14T03:55:06.253Z,98683.97
2018-12-14T03:57:34.337Z,98686.98
2018-12-14T04:00:02.444Z,98679.80
2018-12-14T04:02:30.515Z,98683.05
2018-12-14T04:04:59.426Z,98688.20
2018-12-14T04:07:27.640Z,98678.00
2018-12-14T04:09:55.707Z,98678.06
2018-12-14T04:12:23.799Z,98670.55
2018-12-14T04:14:51.838Z,98672.37
2018-12-14T04:17:19.888Z,98675.73
2018-12-14T04:19:47.978Z,98672.76
2018-12-14T04:22:16.067Z,98678.30
2018-12-14T04:24:44.141Z,98680.58
2018-12-14T04:27:12.234Z,98684.15
2018-12-14T04:29:40.480Z,98681.20
2018-12-14T04:32:09.028Z,98683.72
2018-12-14T04:34:37.227Z,98684.15
2018-12-14T04:37:05.608Z,98681.05
2018-12-14T04:39:33.659Z,98677.16
2018-12-14T04:42:01.871Z,98675.53
2018-12-14T04:44:30.120Z,98676.64
2018-12-14T04:46:58.685Z,98679.38
2018-12-14T04:49:27.025Z,98680.39
2018-12-14T04:51:55.061Z,98677.47
2018-12-14T04:54:23.222Z,98682.71
2018-12-14T04:56:51.344Z,98687.84
2018-12-14T04:59:19.426Z,98686.66
2018-12-14T05:01:47.496Z,98687.99
2018-12-14T05:04:15.628Z,98692.65
2018-12-14T05:06:43.704Z,98696.77
2018-12-14T05:09:11.754Z,98692.58
2018-12-14T05:11:39.839Z,98694.60
2018-12-14T05:14:07.917Z,98696.73
2018-12-14T05:16:35.979Z,98702.54
2018-12-14T05:19:04.075Z,98701.31
2018-12-14T05:21:32.222Z,98704.45
2018-12-14T05:24:00.290Z,98703.39
2018-12-14T05:26:29.043Z,98698.46
2018-12-14T05:28:57.382Z,98702.67
2018-12-14T05:31:25.432Z,98707.30
2018-12-14T05:33:53.548Z,98702.55
2018-12-14T05:36:21.575Z,98703.63
2018-12-14T05:38:49.751Z,98704.87
2018-12-14T05:41:17.842Z,98702.02
2018-12-14T05:43:46.038Z,98698.89
2018-12-14T05:46:14.582Z,98707.44
2018-12-14T05:48:42.655Z,98703.70
2018-12-14T05:51:10.723Z,98706.63
2018-12-14T05:53:39.107Z,98712.77
2018-12-14T05:56:07.153Z,98708.11
2018-12-14T05:58:35.246Z,98708.13
2018-12-14T06:01:03.381Z,98710.36
2018-12-14T06:03:31.568Z,98710.88
2018-12-14T06:05:59.766Z,98715.38
2018-12-14T06:08:27.879Z,98718.14
2018-12-14T06:10:55.974Z,98720.83
2018-12-14T06:13:24.059Z,98730.45
2018-12-14T06:15:52.151Z,98722.70
2018-12-14T06:18:20.200Z,98719.67
2018-12-14T06:20:48.294Z,98724.75
2018-12-14T06:23:16.366Z,98722.12
2018-12-14T06:25:44.535Z,98729.09
2018-12-14T06:28:12.612Z,98734.53
2018-12-14T06:30:40.680Z,98740.39
2018-12-14T06:33:08.793Z,98738.19
2018-12-14T06:35:36.984Z,98743.12
2018-12-14T06:38:05.079Z,98746.13
2018-12-14T06:40:33.364Z,98736.63
2018-12-14T06:43:01.559Z,98742.52
2018-12-14T06:45:30.044Z,98739.49
2018-12-14T06:47:58.144Z,98747.60
2018-12-14T06:50:28.314Z,98749.04
2018-12-14T06:52:56.887Z,98758.56
2018-12-14T06:55:24.954Z,98757.44
2018-12-14T06:57:53.338Z,98752.09
2018-12-14T07:00:21.430Z,98758.00
2018-12-14T07:02:49.544Z,98760.48
2018-12-14T07:05:17.645Z,98763.83
2018-12-14T07:07:45.743Z,98761.35
2018-12-14T07:10:13.782Z,98771.70
2018-12-14T07:12:41.879Z,98765.54
2018-12-14T07:15:10.142Z,98768.14
2018-12-14T07:17:38.227Z,98773.87
2018-12-14T07:20:07.027Z,98777.42
2018-12-14T07:22:35.136Z,98773.41
2018-12-14T07:25:04.489Z,98773.60
2018-12-14T07:27:32.830Z,98773.61
2018-12-14T07:30:00.988Z,98777.21
2018-12-14T07:32:29.063Z,98784.36
2018-12-14T07:34:57.100Z,98787.88
2018-12-14T07:37:25.155Z,98788.69
2018-12-14T07:39:53.582Z,98797.01
2018-12-14T07:42:21.766Z,98794.58
2018-12-14T07:44:50.057Z,98799.56
2018-12-14T07:47:18.443Z,98802.98
2018-12-14T07:49:46.505Z,98811.44
2018-12-14T07:52:14.601Z,98817.86
2018-12-14T07:54:42.799Z,98819.77
2018-12-14T07:57:10.914Z,98820.07
2018-12-14T07:59:39.015Z,98826.16
2018-12-14T08:02:07.094Z,98828.67
2018-12-14T08:04:35.535Z,98833.38
2018-12-14T08:07:03.633Z,98828.28
2018-12-14T08:09:31.711Z,98831.55
2018-12-14T08:11:59.904Z,98836.44
2018-12-14T08:14:28.067Z,98840.00
2018-12-14T08:16:56.168Z,98839.64
2018-12-14T08:19:24.215Z,98843.73
2018-12-14T08:21:52.259Z,98843.59
2018-12-14T08:24:20.382Z,98845.42
2018-12-14T08:26:48.523Z,98856.78
2018-12-14T08:29:16.587Z,98859.45
2018-12-14T08:31:44.682Z,98864.16
2018-12-14T08:34:12.751Z,98865.31
2018-12-14T08:36:40.966Z,98867.03
2018-12-14T08:39:09.705Z,98863.11
2018-12-14T08:41:38.055Z,98866.30
2018-12-14T08:44:06.618Z,98864.86
2018-12-14T08:46:34.856Z,98866.81
2018-12-14T08:49:03.483Z,98867.38
2018-12-14T08:51:31.587Z,98871.95
2018-12-14T08:53:59.668Z,98874.00
2018-12-14T08:56:27.747Z,98882.27
2018-12-14T08:58:55.790Z,98886.16
2018-12-14T09:01:24.096Z,98879.00
2018-12-14T09:03:52.167Z,98890.09
2018-12-14T09:06:20.239Z,98890.09
2018-12-14T09:08:48.302Z,98895.80
2018-12-14T09:11:16.362Z,98895.42
2018-12-14T09:13:47.833Z,98897.65
2018-12-14T09:16:14.519Z,98908.59
2018-12-14T09:18:42.647Z,98917.37
2018-12-14T09:21:10.731Z,98909.66
2018-12-14T09:23:38.832Z,98923.61
2018-12-14T09:26:07.072Z,98926.50
2018-12-14T09:28:35.602Z,98921.08
2018-12-14T09:31:04.066Z,98920.95
2018-12-14T09:33:32.114Z,98929.36
2018-12-14T09:36:00.159Z,98931.95
2018-12-14T09:38:28.249Z,98921.05
2018-12-14T09:40:56.321Z,98927.83
2018-12-14T09:43:24.375Z,98927.78
2018-12-14T09:45:53.535Z,98931.67
2018-12-14T09:48:21.623Z,98931.75
2018-12-14T09:50:49.707Z,98934.75
2018-12-14T09:53:18.098Z,98932.74
2018-12-14T09:55:46.348Z,98937.46
2018-12-14T09:58:14.419Z,98940.20
2018-12-14T10:00:42.500Z,98930.04
2018-12-14T10:03:10.675Z,98940.09
2018-12-14T10:05:38.771Z,98938.12
2018-12-14T10:08:07.100Z,98944.73
2018-12-14T10:10:35.379Z,98940.82
2018-12-14T10:13:03.440Z,98939.59
2018-12-14T10:15:31.535Z,98941.58
2018-12-14T10:17:59.780Z,98941.95
2018-12-14T10:20:27.913Z,98943.56
2018-12-14T10:22:56.025Z,98934.30
2018-12-14T10:25:24.140Z,98935.44
2018-12-14T10:27:52.207Z,98934.14
2018-12-14T10:30:20.303Z,98929.31
2018-12-14T10:32:48.366Z,98930.06
2018-12-14T10:35:17.443Z,98926.58
2018-12-14T10:37:45.514Z,98923.06
2018-12-14T10:40:13.667Z,98921.83
2018-12-14T10:42:41.784Z,98911.36
2018-12-14T10:45:10.143Z,98916.95
2018-12-14T10:47:38.947Z,98917.67
2018-12-14T10:50:08.294Z,98915.23
2018-12-14T10:52:36.366Z,98913.25
2018-12-14T10:55:06.331Z,98913.72
2018-12-14T10:57:34.686Z,98913.00
2018-12-14T11:00:03.253Z,98905.07
2018-12-14T11:02:31.470Z,98912.52
2018-12-14T11:04:59.536Z,98906.03
2018-12-14T11:07:27.616Z,98911.67
2018-12-14T11:09:55.692Z,98908.00
2018-12-14T11:12:23.793Z,98907.55
2018-12-14T11:14:51.827Z,98906.58
2018-12-14T11:17:19.946Z,98907.81
2018-12-14T11:19:48.271Z,98907.48
2018-12-14T11:22:16.332Z,98902.91
2018-12-14T11:24:44.431Z,98904.82
2018-12-14T11:27:12.595Z,98904.05
2018-12-14T11:29:40.984Z,98902.88
2018-12-14T11:32:09.561Z,98902.48
2018-12-14T11:34:37.624Z,98903.30
2018-12-14T11:37:05.699Z,98898.58
2018-12-14T11:39:33.758Z,98903.80
2018-12-14T11:42:01.843Z,98901.23
2018-12-14T11:44:29.920Z,98898.67
2018-12-14T11:46:57.980Z,98905.70
2018-12-14T11:49:26.267Z,98901.78
2018-12-14T11:51:54.339Z,98908.11
2018-12-14T11:54:22.797Z,98904.48
2018-12-14T11:56:50.889Z,98900.77
2018-12-14T11:59:19.372Z,98891.45
2018-12-14T12:01:48.043Z,98891.39
2018-12-14T12:04:16.398Z,98892.80
2018-12-14T12:06:44.495Z,98890.31
2018-12-14T12:09:12.568Z,98890.89
2018-12-14T12:11:40.831Z,98889.06
2018-12-14T12:14:08.885Z,98883.41
2018-12-14T12:16:36.958Z,98886.56
2018-12-14T12:19:05.034Z,98881.52
2018-12-14T12:21:33.575Z,98898.87
2018-12-14T12:24:01.711Z,98887.89
2018-12-14T12:26:29.795Z,98899.55
2018-12-14T12:28:57.930Z,98900.66
2018-12-14T12:31:26.083Z,98899.67
2018-12-14T12:33:54.179Z,98900.08
2018-12-14T12:36:22.227Z,98897.52
2018-12-14T12:38:50.359Z,98901.30
2018-12-14T12:41:18.403Z,98901.11
2018-12-14T12:43:46.545Z,98908.77
2018-12-14T12:46:14.668Z,98898.97
2018-12-14T12:48:43.135Z,98898.59
2018-12-14T12:51:11.296Z,98897.02
2018-12-14T12:53:39.498Z,98898.88
2018-12-14T12:56:07.809Z,98900.89
2018-12-14T12:58:35.931Z,98907.43
2018-12-14T13:01:04.216Z,98900.63
2018-12-14T13:03:32.300Z,98899.89
2018-12-14T13:06:00.467Z,98901.50
2018-12-14T13:08:28.613Z,98903.08
2018-12-14T13:10:56.695Z,98899.91
2018-12-14T13:13:24.770Z,98905.84
2018-12-14T13:15:52.868Z,98911.56
2018-12-14T13:18:20.955Z,98909.64
2018-12-14T13:20:49.027Z,98914.23
2018-12-14T13:23:17.071Z,98908.22
2018-12-14T13:25:45.118Z,98914.92
2018-12-14T13:28:13.571Z,98915.28
2018-12-14T13:30:41.857Z,98916.10
2018-12-14T13:33:10.070Z,98920.06
2018-12-14T13:35:39.388Z,98923.12
2018-12-14T13:38:07.525Z,98927.32
2018-12-14T13:40:35.715Z,98934.20
2018-12-14T13:43:04.909Z,98938.80
2018-12-14T13:45:33.100Z,98941.90
2018-12-14T13:48:01.242Z,98942.05
2018-12-14T13:50:29.409Z,98949.55
2018-12-14T13:52:57.762Z,98951.62
2018-12-14T13:55:25.859Z,98957.97
2018-12-14T13:57:53.926Z,98957.97
2018-12-14T14:00:22.040Z,98955.03
2018-12-14T14:02:50.112Z,98967.00
2018-12-14T14:05:18.255Z,98972.70
2018-12-14T14:07:46.452Z,98979.17
2018-12-14T14:10:14.639Z,98981.86
2018-12-14T14:12:42.686Z,98993.40
2018-12-14T14:15:10.814Z,98995.28
2018-12-14T14:17:38.873Z,99004.09
2018-12-14T14:20:07.918Z,99001.03
2018-12-14T14:22:36.631Z,98994.73
2018-12-14T14:25:05.362Z,98996.91
2018-12-14T14:27:33.540Z,98996.98
2018-12-14T14:30:01.727Z,99002.81
2018-12-14T14:32:29.767Z,99011.73
2018-12-14T14:34:57.914Z,99014.61
2018-12-14T14:37:25.995Z,99016.11
2018-12-14T14:39:54.030Z,99017.53
2018-12-14T14:42:22.102Z,99017.27
2018-12-14T14:44:50.189Z,99017.87
2018-12-14T14:47:18.301Z,99018.66
2018-12-14T14:49:46.377Z,99015.95
2018-12-14T14:52:14.484Z,99017.50
2018-12-14T14:54:42.746Z,99019.69
2018-12-14T14:57:10.847Z,99020.86
2018-12-14T14:59:38.934Z,99017.01
2018-12-14T15:02:07.097Z,99021.12
2018-12-14T15:04:35.155Z,99020.77
2018-12-14T15:07:03.239Z,99020.59
2018-12-14T15:09:31.321Z,99021.55
2018-12-14T15:11:59.383Z,99021.97
2018-12-14T15:14:27.502Z,99023.69
2018-12-14T15:16:55.568Z,99029.62
2018-12-14T15:19:23.667Z,99029.88
2018-12-14T15:21:51.873Z,99035.55
2018-12-14T15:24:19.947Z,99039.34
2018-12-14T15:26:48.095Z,99042.98
2018-12-14T15:29:16.173Z,99047.09
2018-12-14T15:31:45.017Z,99042.48
2018-12-14T15:34:14.480Z,99049.02
2018-12-14T15:36:42.968Z,99026.70
2018-12-14T15:39:11.110Z,99049.23
2018-12-14T15:41:39.171Z,99061.20
2018-12-14T15:44:07.747Z,99059.48
2018-12-14T15:46:35.840Z,99063.97
2018-12-14T15:49:03.993Z,99069.92
2018-12-14T15:51:32.631Z,99071.70
2018-12-14T15:54:00.699Z,99075.23
2018-12-14T15:56:28.878Z,99070.42
2018-12-14T15:58:56.981Z,99074.69
2018-12-14T16:01:25.947Z,99081.13
2018-12-14T16:03:54.103Z,99079.83
2018-12-14T16:06:22.287Z,99075.81
2018-12-14T16:08:50.338Z,99085.63
2018-12-14T16:11:18.419Z,99079.91
2018-12-14T16:13:46.540Z,99081.78
2018-12-14T16:16:14.742Z,99085.84
2018-12-14T16:18:42.806Z,99087.09
2018-12-14T16:21:11.058Z,99081.45
2018-12-14T16:23:39.249Z,99090.66
2018-12-14T16:26:07.409Z,99086.78
2018-12-14T16:28:35.615Z,99088.77
2018-12-14T16:31:03.707Z,99090.97
2018-12-14T16:33:31.780Z,99087.78
2018-12-14T16:36:00.043Z,99095.13
2018-12-14T16:38:28.132Z,99095.33
2018-12-14T16:40:56.363Z,99095.15
2018-12-14T16:43:24.431Z,99097.57
2018-12-14T16:45:52.527Z,99103.37
2018-12-14T16:48:20.584Z,99110.95
2018-12-14T16:50:48.699Z,99105.09
2018-12-14T16:53:16.852Z,99108.77
2018-12-14T16:55:45.421Z,99113.45
2018-12-14T16:58:13.599Z,99117.34
2018-12-14T17:00:41.654Z,99119.77
2018-12-14T17:03:09.939Z,99125.26
2018-12-14T17:05:38.039Z,99121.95
2018-12-14T17:08:06.279Z,99129.12
2018-12-14T17:10:34.354Z,99129.34
2018-12-14T17:13:02.665Z,99129.08
2018-12-14T17:15:33.368Z,99141.20
2018-12-14T17:18:00.804Z,99136.99
2018-12-14T17:20:28.976Z,99136.67
2018-12-14T17:22:57.099Z,99136.50
2018-12-14T17:25:25.462Z,99135.48
2018-12-14T17:27:53.630Z,99137.08
2018-12-14T17:30:21.723Z,99140.91
2018-12-14T17:32:49.778Z,99139.45
2018-12-14T17:35:17.855Z,99145.19
2018-12-14T17:37:45.942Z,99150.95
2018-12-14T17:40:14.087Z,99155.71
2018-12-14T17:42:42.298Z,99164.98
2018-12-14T17:45:10.763Z,99168.81
2018-12-14T17:47:38.835Z,99173.77
2018-12-14T17:50:07.847Z,99174.83
2018-12-14T17:52:35.895Z,99177.04
2018-12-14T17:55:04.354Z,99177.41
2018-12-14T17:57:32.522Z,99179.36
2018-12-14T18:00:00.746Z,99173.16
2018-12-14T18:02:28.896Z,99177.70
2018-12-14T18:04:56.967Z,99176.48
2018-12-14T18:07:25.043Z,99178.50
2018-12-14T18:09:53.083Z,99189.80
2018-12-14T18:12:21.190Z,99194.64
2018-12-14T18:14:49.319Z,99199.02
2018-12-14T18:17:17.431Z,99197.91
2018-12-14T18:19:45.497Z,99195.86
2018-12-14T18:22:14.233Z,99195.70
2018-12-14T18:24:42.266Z,99201.44
2018-12-14T18:27:10.376Z,99202.94
2018-12-14T18:29:38.459Z,99204.06
2018-12-14T18:32:06.579Z,99202.67
2018-12-14T18:34:34.849Z,99205.53
2018-12-14T18:37:03.027Z,99214.08
2018-12-14T18:39:31.270Z,99211.55
2018-12-14T18:41:59.379Z,99221.41
2018-12-14T18:44:27.548Z,99227.01
2018-12-14T18:46:55.707Z,99231.67
2018-12-14T18:49:24.170Z,99226.88
2018-12-14T18:51:52.699Z,99227.09
2018-12-14T18:54:20.771Z,99228.50
2018-12-14T18:56:48.831Z,99232.20
2018-12-14T18:59:17.116Z,99239.42
2018-12-14T19:01:45.283Z,99233.46
2018-12-14T19:04:13.518Z,99233.54
2018-12-14T19:06:41.615Z,99241.28
2018-12-14T19:09:09.755Z,99240.80
2018-12-14T19:11:37.963Z,99240.03
2018-12-14T19:14:06.025Z,99244.68
2018-12-14T19:16:34.485Z,99245.48
2018-12-14T19:19:02.915Z,99248.48
2018-12-14T19:21:30.966Z,99250.94
2018-12-14T19:23:59.039Z,99250.44
2018-12-14T19:26:27.111Z,99248.28
2018-12-14T19:28:55.178Z,99248.35
2018-12-14T19:31:23.256Z,99247.11
2018-12-14T19:33:51.347Z,99246.19
2018-12-14T19:36:19.426Z,99246.13
2018-12-14T19:38:47.514Z,99247.17
2018-12-14T19:41:15.606Z,99246.81
2018-12-14T19:43:43.700Z,99251.93
2018-12-14T19:46:11.774Z,99246.05
2018-12-14T19:48:40.175Z,99251.20
2018-12-14T19:51:08.247Z,99247.16
2018-12-14T19:53:36.417Z,99243.99
2018-12-14T19:56:04.898Z,99249.06
2018-12-14T19:58:32.970Z,99252.56
2018-12-14T20:01:01.119Z,99249.92
2018-12-14T20:03:29.523Z,99258.64
2018-12-14T20:05:57.577Z,99256.89
2018-12-14T20:08:25.747Z,99261.49
2018-12-14T20:10:53.839Z,99262.69
2018-12-14T20:13:21.899Z,99263.47
2018-12-14T20:15:49.970Z,99261.64
2018-12-14T20:18:18.074Z,99263.38
2018-12-14T20:20:46.112Z,99266.48
2018-12-14T20:23:14.191Z,99261.55
2018-12-14T20:25:42.267Z,99266.09
2018-12-14T20:28:10.348Z,99262.02
2018-12-14T20:30:38.398Z,99264.88
2018-12-14T20:33:06.479Z,99265.88
2018-12-14T20:35:34.642Z,99265.20
2018-12-14T20:38:03.103Z,99261.95
2018-12-14T20:40:31.411Z,99271.54
2018-12-14T20:42:59.687Z,99271.90
2018-12-14T20:45:27.751Z,99269.86
2018-12-14T20:47:55.922Z,99273.13
2018-12-14T20:50:23.994Z,99263.11
2018-12-14T20:52:52.064Z,99259.98
2018-12-14T20:55:20.138Z,99263.14
2018-12-14T20:57:48.215Z,99259.69
2018-12-14T21:00:16.294Z,99262.27
2018-12-14T21:02:44.463Z,99258.90
2018-12-14T21:05:12.949Z,99267.56
2018-12-14T21:07:41.423Z,99262.39
2018-12-14T21:10:09.655Z,99268.52
2018-12-14T21:12:37.830Z,99273.00
2018-12-14T21:15:06.958Z,99269.84
2018-12-14T21:17:35.105Z,99274.60
2018-12-14T21:20:04.023Z,99272.18
2018-12-14T21:22:33.430Z,99276.02
2018-12-14T21:25:01.509Z,99273.71
2018-12-14T21:27:29.843Z,99272.62
2018-12-14T21:29:57.924Z,99273.09
2018-12-14T21:32:26.007Z,99270.37
2018-12-14T21:34:54.079Z,99262.73
2018-12-14T21:37:22.335Z,99265.30
2018-12-14T21:39:50.394Z,99264.83
2018-12-14T21:42:18.519Z,99253.91
2018-12-14T21:44:46.582Z,99259.20
2018-12-14T21:47:14.935Z,99253.78
2018-12-14T21:49:42.997Z,99247.34
2018-12-14T21:52:11.219Z,99240.52
2018-12-14T21:54:39.310Z,99239.48
2018-12-14T21:57:07.460Z,99242.27
2018-12-14T21:59:35.523Z,99234.16
2018-12-14T22:02:03.578Z,99235.84
2018-12-14T22:04:31.784Z,99245.02
2018-12-14T22:07:00.118Z,99246.19
2018-12-14T22:09:28.300Z,99244.09
2018-12-14T22:11:56.368Z,99244.42
2018-12-14T22:14:24.675Z,99244.13
2018-12-14T22:16:52.747Z,99250.18
2018-12-14T22:19:20.800Z,99243.67
2018-12-14T22:21:48.887Z,99241.58
2018-12-14T22:24:17.104Z,99239.05
2018-12-14T22:26:45.179Z,99247.30
2018-12-14T22:29:13.222Z,99238.23
2018-12-14T22:31:41.318Z,99246.83
2018-12-14T22:34:09.394Z,99247.19
2018-12-14T22:36:37.903Z,99247.86
2018-12-14T22:39:07.227Z,99242.78
2018-12-14T22:41:36.400Z,99259.48
2018-12-14T22:44:04.552Z,99248.45
2018-12-14T22:46:32.647Z,99229.17
2018-12-14T22:49:00.756Z,99238.66
2018-12-14T22:51:28.887Z,99233.67
2018-12-14T22:53:56.951Z,99235.52
2018-12-14T22:56:25.037Z,99231.00
2018-12-14T22:58:53.147Z,99239.16
2018-12-14T23:01:21.298Z,99245.00
2018-12-14T23:03:49.386Z,99252.70
2018-12-14T23:06:17.475Z,99255.54
2018-12-14T23:08:45.798Z,99251.44
2018-12-14T23:11:13.883Z,99257.09
2018-12-14T23:13:41.963Z,99252.09
2018-12-14T23:16:10.043Z,99257.39
2018-12-14T23:18:38.669Z,99252.81
2018-12-14T23:21:07.000Z,99253.11
2018-12-14T23:23:35.100Z,99253.05
2018-12-14T23:26:03.399Z,99257.02
2018-12-14T23:28:31.774Z,99252.42
2018-12-14T23:30:59.846Z,99252.55
2018-12-14T23:33:27.883Z,99246.21
2018-12-14T23:35:55.967Z,99246.14
2018-12-14T23:38:24.014Z,99242.32
2018-12-14T23:40:52.104Z,99245.98
2018-12-14T23:43:20.187Z,99249.78
2018-12-14T23:45:48.278Z,99250.68
2018-12-14T23:48:16.350Z,99250.39
2018-12-14T23:50:44.479Z,99255.19
2018-12-14T23:53:12.555Z,99260.39
2018-12-14T23:55:42.185Z,99266.80
2018-12-14T23:58:10.503Z,99269.61
